Lodi, New Jersey
Current Conditions -  °F | °C
As of 11:51 PM on Saturday 25 Oct 2014 (Local Time) from KTEB Reporting Station
Broken Clouds Broken Clouds  
Wind Chill: 62°   Ceiling: 11000
Heat Index: 62°   Visibility: 10mi
Dew Point: 43°   Wind: 12mph
Humidity: 50%   Direction: 240°WSW
Pressure: 29.55"   Gusts: NA
Location:  40.88°N, 74.08°W
Report Text: KTEB 260351Z 24010KT 10SM FEW085 BKN110 17/06 A2955 RMK AO2 SLP006 T01670061
Loading
Personal Weather Stations






























Interactive Weather Map
Tropical Storm Tracking
New forecast layout! Learn more

10-Day Weather Forecast

Advertisements
Track Severe Weather on mobile